createdAt,value
2018-02-07T00:00:05.827Z,1017.35
2018-02-07T00:01:27.703Z,1017.34
2018-02-07T00:02:49.818Z,1017.37
2018-02-07T00:04:11.955Z,1017.37
2018-02-07T00:05:33.852Z,1017.39
2018-02-07T00:06:55.969Z,1017.33
2018-02-07T00:08:17.824Z,1017.31
2018-02-07T00:09:39.692Z,1017.32
2018-02-07T00:11:01.339Z,1017.34
2018-02-07T00:12:22.960Z,1017.31
2018-02-07T00:13:44.835Z,1017.36
2018-02-07T00:15:06.437Z,1017.32
2018-02-07T00:16:28.582Z,1017.3
2018-02-07T00:17:50.541Z,1017.33
2018-02-07T00:19:12.394Z,1017.34
2018-02-07T00:20:34.541Z,1017.36
2018-02-07T00:21:56.418Z,1017.3
2018-02-07T00:23:18.300Z,1017.3
2018-02-07T00:24:40.451Z,1017.32
2018-02-07T00:26:02.668Z,1017.37
2018-02-07T00:27:24.796Z,1017.42
2018-02-07T00:28:46.637Z,1017.41
2018-02-07T00:30:08.853Z,1017.46
2018-02-07T00:31:30.711Z,1017.42
2018-02-07T00:32:52.292Z,1017.4
2018-02-07T00:34:14.421Z,1017.36
2018-02-07T00:35:36.351Z,1017.37
2018-02-07T00:36:58.304Z,1017.36
2018-02-07T00:38:20.155Z,1017.33
2018-02-07T00:39:42.018Z,1017.34
2018-02-07T00:41:03.691Z,1017.35
2018-02-07T00:42:25.663Z,1017.34
2018-02-07T00:43:47.511Z,1017.38
2018-02-07T00:45:09.530Z,1017.37
2018-02-07T00:46:31.386Z,1017.36
2018-02-07T00:47:53.531Z,1017.34
2018-02-07T00:49:15.406Z,1017.36
2018-02-07T00:50:36.729Z,1017.33
2018-02-07T00:51:58.094Z,1017.35
2018-02-07T00:53:19.826Z,1017.37
2018-02-07T00:54:41.672Z,1017.33
2018-02-07T00:56:03.598Z,1017.34
2018-02-07T00:57:25.784Z,1017.33
2018-02-07T00:58:47.492Z,1017.3
2018-02-07T01:00:09.355Z,1017.33
2018-02-07T01:01:31.239Z,1017.27
2018-02-07T01:02:53.395Z,1017.29
2018-02-07T01:04:15.235Z,1017.23
2018-02-07T01:05:36.834Z,1017.2
2018-02-07T01:06:58.697Z,1017.17
2018-02-07T01:08:20.566Z,1017.2
2018-02-07T01:09:42.602Z,1017.19
2018-02-07T01:11:04.463Z,1017.24
2018-02-07T01:12:26.130Z,1017.26
2018-02-07T01:13:48.084Z,1017.25
2018-02-07T01:15:10.045Z,1017.25
2018-02-07T01:16:31.913Z,1017.18
2018-02-07T01:17:53.782Z,1017.25
2018-02-07T01:19:15.931Z,1017.2
2018-02-07T01:20:37.785Z,1017.17
2018-02-07T01:21:59.618Z,1017.12
2018-02-07T01:23:21.454Z,1017.16
2018-02-07T01:24:43.340Z,1017.19
2018-02-07T01:26:04.974Z,1017.14
2018-02-07T01:27:27.080Z,1017.21
2018-02-07T01:28:49.183Z,1017.17
2018-02-07T01:30:11.202Z,1017.19
2018-02-07T01:31:33.321Z,1017.15
2018-02-07T01:32:55.175Z,1017.14
2018-02-07T01:34:16.775Z,1017.19
2018-02-07T01:35:38.479Z,1017.21
2018-02-07T01:37:00.083Z,1017.16
2018-02-07T01:38:22.187Z,1017.21
2018-02-07T01:39:44.317Z,1017.24
2018-02-07T01:41:06.153Z,1017.22
2018-02-07T01:42:27.513Z,1017.18
2018-02-07T01:43:49.350Z,1017.16
2018-02-07T01:45:10.690Z,1017.18
2018-02-07T01:46:32.551Z,1017.15
2018-02-07T01:47:54.666Z,1017.2
2018-02-07T01:49:16.252Z,1017.18
2018-02-07T01:50:38.133Z,1017.23
2018-02-07T01:52:00.065Z,1017.19
2018-02-07T01:53:21.662Z,1017.22
2018-02-07T01:54:43.494Z,1017.23
2018-02-07T01:56:05.366Z,1017.19
2018-02-07T01:57:27.502Z,1017.21
2018-02-07T01:58:49.348Z,1017.21
2018-02-07T02:00:10.976Z,1017.27
2018-02-07T02:01:33.091Z,1017.28
2018-02-07T02:02:55.501Z,1017.26
2018-02-07T02:04:17.618Z,1017.27
2018-02-07T02:05:39.812Z,1017.27
2018-02-07T02:07:01.666Z,1017.26
2018-02-07T02:08:23.522Z,1017.23
2018-02-07T02:09:45.211Z,1017.27
2018-02-07T02:11:07.442Z,1017.27
2018-02-07T02:12:29.564Z,1017.29
2018-02-07T02:13:52.017Z,1017.29
2018-02-07T02:15:13.927Z,1017.28
2018-02-07T02:16:36.026Z,1017.27
2018-02-07T02:17:57.873Z,1017.3
2018-02-07T02:19:19.793Z,1017.29
2018-02-07T02:20:41.966Z,1017.3
2018-02-07T02:22:03.314Z,1017.31
2018-02-07T02:23:25.418Z,1017.37
2018-02-07T02:24:47.866Z,1017.37
2018-02-07T02:26:09.728Z,1017.4
2018-02-07T02:27:31.591Z,1017.37
2018-02-07T02:28:53.199Z,1017.4
2018-02-07T02:30:15.674Z,1017.35
2018-02-07T02:31:37.820Z,1017.36
2018-02-07T02:32:59.716Z,1017.34
2018-02-07T02:34:21.288Z,1017.35
2018-02-07T02:35:43.414Z,1017.3
2018-02-07T02:37:05.247Z,1017.32
2018-02-07T02:38:27.248Z,1017.3
2018-02-07T02:39:49.101Z,1017.28
2018-02-07T02:41:10.998Z,1017.28
2018-02-07T02:42:32.892Z,1017.3
2018-02-07T02:43:54.739Z,1017.27
2018-02-07T02:45:16.887Z,1017.3
2018-02-07T02:46:39.038Z,1017.29
2018-02-07T02:48:00.631Z,1017.32
2018-02-07T02:49:22.275Z,1017.3
2018-02-07T02:50:44.402Z,1017.29
2018-02-07T02:52:06.574Z,1017.31
2018-02-07T02:53:28.665Z,1017.36
2018-02-07T02:54:50.785Z,1017.32
2018-02-07T02:56:12.371Z,1017.34
2018-02-07T02:57:34.545Z,1017.37
2018-02-07T02:58:56.411Z,1017.4
2018-02-07T03:00:18.162Z,1017.42
2018-02-07T03:01:40.031Z,1017.4
2018-02-07T03:03:02.200Z,1017.42
2018-02-07T03:04:23.862Z,1017.38
2018-02-07T03:05:45.726Z,1017.43
2018-02-07T03:07:07.321Z,1017.43
2018-02-07T03:08:29.195Z,1017.45
2018-02-07T03:09:50.830Z,1017.45
2018-02-07T03:11:12.414Z,1017.46
2018-02-07T03:12:34.020Z,1017.46
2018-02-07T03:13:55.900Z,1017.48
2018-02-07T03:15:17.227Z,1017.53
2018-02-07T03:16:39.068Z,1017.47
2018-02-07T03:18:00.952Z,1017.53
2018-02-07T03:19:22.531Z,1017.55
2018-02-07T03:20:44.482Z,1017.54
2018-02-07T03:22:06.090Z,1017.51
2018-02-07T03:23:28.192Z,1017.58
2018-02-07T03:24:50.392Z,1017.59
2018-02-07T03:26:12.370Z,1017.62
2018-02-07T03:27:34.201Z,1017.6
2018-02-07T03:28:56.135Z,1017.65
2018-02-07T03:30:18.281Z,1017.62
2018-02-07T03:31:40.133Z,1017.67
2018-02-07T03:33:01.468Z,1017.66
2018-02-07T03:34:23.331Z,1017.68
2018-02-07T03:35:45.492Z,1017.69
2018-02-07T03:37:07.626Z,1017.72
2018-02-07T03:38:29.213Z,1017.63
2018-02-07T03:39:51.124Z,1017.65
2018-02-07T03:41:12.861Z,1017.61
2018-02-07T03:42:34.480Z,1017.64
2018-02-07T03:43:56.328Z,1017.69
2018-02-07T03:45:17.931Z,1017.68
2018-02-07T03:46:40.041Z,1017.7
2018-02-07T03:48:01.930Z,1017.7
2018-02-07T03:49:23.512Z,1017.72
2018-02-07T03:50:45.621Z,1017.73
2018-02-07T03:52:07.471Z,1017.72
2018-02-07T03:53:29.562Z,1017.76
2018-02-07T03:54:51.180Z,1017.66
2018-02-07T03:56:12.573Z,1017.72
2018-02-07T03:57:34.724Z,1017.65
2018-02-07T03:58:56.840Z,1017.65
2018-02-07T04:00:18.950Z,1017.62
2018-02-07T04:01:40.613Z,1017.62
2018-02-07T04:03:02.250Z,1017.67
2018-02-07T04:04:24.392Z,1017.68
2018-02-07T04:05:46.216Z,1017.72
2018-02-07T04:07:07.899Z,1017.71
2018-02-07T04:08:29.805Z,1017.72
2018-02-07T04:09:51.910Z,1017.72
2018-02-07T04:11:14.010Z,1017.7
2018-02-07T04:12:35.865Z,1017.73
2018-02-07T04:13:57.501Z,1017.7
2018-02-07T04:15:19.627Z,1017.73
2018-02-07T04:16:41.499Z,1017.78
2018-02-07T04:18:03.106Z,1017.77
2018-02-07T04:19:24.772Z,1017.77
2018-02-07T04:20:46.631Z,1017.77
2018-02-07T04:22:08.500Z,1017.78
2018-02-07T04:23:30.392Z,1017.78
2018-02-07T04:24:52.485Z,1017.82
2018-02-07T04:26:14.086Z,1017.81
2018-02-07T04:27:36.197Z,1017.82
2018-02-07T04:28:58.030Z,1017.85
2018-02-07T04:30:19.934Z,1017.88
2018-02-07T04:31:42.048Z,1017.86
2018-02-07T04:33:04.258Z,1017.85
2018-02-07T04:34:26.215Z,1017.85
2018-02-07T04:35:48.065Z,1017.88
2018-02-07T04:37:09.385Z,1017.88
2018-02-07T04:38:31.241Z,1017.91
2018-02-07T04:39:53.362Z,1017.91
2018-02-07T04:41:15.791Z,1017.9
2018-02-07T04:42:37.690Z,1017.88
2018-02-07T04:43:59.583Z,1017.9
2018-02-07T04:45:21.563Z,1017.92
2018-02-07T04:46:43.708Z,1017.87
2018-02-07T04:48:05.811Z,1017.87
2018-02-07T04:49:27.442Z,1017.88
2018-02-07T04:50:48.773Z,1017.86
2018-02-07T04:52:10.932Z,1017.87
2018-02-07T04:53:32.571Z,1017.85
2018-02-07T04:54:53.920Z,1017.88
2018-02-07T04:56:15.256Z,1017.93
2018-02-07T04:57:36.326Z,1017.95
2018-02-07T04:58:57.940Z,1017.91
2018-02-07T05:00:20.024Z,1017.9
2018-02-07T05:01:41.855Z,1017.91
2018-02-07T05:03:03.720Z,1017.92
2018-02-07T05:04:25.590Z,1017.95
2018-02-07T05:05:47.439Z,1018
2018-02-07T05:07:09.030Z,1018.01
2018-02-07T05:08:30.700Z,1018.02
2018-02-07T05:09:52.428Z,1017.96
2018-02-07T05:11:14.280Z,1018.03
2018-02-07T05:12:36.148Z,1017.99
2018-02-07T05:13:58.270Z,1017.96
2018-02-07T05:15:20.153Z,1018
2018-02-07T05:16:42.129Z,1017.99
2018-02-07T05:18:03.740Z,1017.98
2018-02-07T05:19:25.088Z,1017.98
2018-02-07T05:20:46.406Z,1017.98
2018-02-07T05:22:08.251Z,1017.97
2018-02-07T05:23:30.081Z,1017.99
2018-02-07T05:24:51.775Z,1018
2018-02-07T05:26:13.613Z,1017.97
2018-02-07T05:27:35.826Z,1017.97
2018-02-07T05:28:57.676Z,1017.98
2018-02-07T05:30:19.776Z,1017.97
2018-02-07T05:31:41.623Z,1017.99
2018-02-07T05:33:03.895Z,1017.91
2018-02-07T05:34:25.769Z,1017.95
2018-02-07T05:35:47.728Z,1017.93
2018-02-07T05:37:09.853Z,1017.93
2018-02-07T05:38:31.983Z,1017.96
2018-02-07T05:39:54.088Z,1017.98
2018-02-07T05:41:16.195Z,1017.98
2018-02-07T05:42:38.311Z,1018
2018-02-07T05:44:00.672Z,1018.02
2018-02-07T05:45:22.514Z,1018.04
2018-02-07T05:46:44.908Z,1018.02
2018-02-07T05:48:06.521Z,1018
2018-02-07T05:49:28.493Z,1018
2018-02-07T05:50:50.657Z,1017.99
2018-02-07T05:52:11.990Z,1017.96
2018-02-07T05:53:34.090Z,1017.98
2018-02-07T05:54:55.709Z,1017.99
2018-02-07T05:56:17.556Z,1017.95
2018-02-07T05:57:39.359Z,1017.96
2018-02-07T05:59:01.202Z,1017.93
2018-02-07T06:00:23.653Z,1017.93
2018-02-07T06:01:45.761Z,1017.98
2018-02-07T06:03:07.914Z,1017.97
2018-02-07T06:04:29.251Z,1017.94
2018-02-07T06:05:51.293Z,1017.93
2018-02-07T06:07:12.941Z,1017.91
2018-02-07T06:08:34.622Z,1017.92
2018-02-07T06:09:56.548Z,1017.96
2018-02-07T06:11:18.138Z,1017.99
2018-02-07T06:12:40.356Z,1018.03
2018-02-07T06:14:02.041Z,1018.05
2018-02-07T06:15:23.650Z,1018.07
2018-02-07T06:16:45.572Z,1018.07
2018-02-07T06:18:07.815Z,1018.07
2018-02-07T06:19:29.667Z,1018.15
2018-02-07T06:20:51.261Z,1018.15
2018-02-07T06:22:13.371Z,1018.11
2018-02-07T06:23:35.633Z,1018.13
2018-02-07T06:24:57.778Z,1018.13
2018-02-07T06:26:19.396Z,1018.14
2018-02-07T06:27:41.016Z,1018.15
2018-02-07T06:29:02.601Z,1018.14
2018-02-07T06:30:24.237Z,1018.11
2018-02-07T06:31:47.310Z,1018.18
2018-02-07T06:33:09.188Z,1018.12
2018-02-07T06:34:30.528Z,1018.13
2018-02-07T06:35:52.393Z,1018.15
2018-02-07T06:37:14.518Z,1018.15
2018-02-07T06:38:36.368Z,1018.15
2018-02-07T06:39:58.563Z,1018.17
2018-02-07T06:41:21.007Z,1018.17
2018-02-07T06:42:42.878Z,1018.23
2018-02-07T06:44:04.793Z,1018.15
2018-02-07T06:45:26.961Z,1018.18
2018-02-07T06:46:49.185Z,1018.17
2018-02-07T06:48:11.073Z,1018.2
2018-02-07T06:49:32.162Z,1018.21
2018-02-07T06:50:54.292Z,1018.23
2018-02-07T06:52:16.552Z,1018.22
2018-02-07T06:53:38.481Z,1018.24
2018-02-07T06:55:00.390Z,1018.27
2018-02-07T06:56:22.362Z,1018.31
2018-02-07T06:57:44.500Z,1018.33
2018-02-07T06:59:06.371Z,1018.34
2018-02-07T07:00:27.460Z,1018.34
2018-02-07T07:01:49.061Z,1018.4
2018-02-07T07:03:10.979Z,1018.4
2018-02-07T07:04:32.867Z,1018.4
2018-02-07T07:05:55.020Z,1018.39
2018-02-07T07:07:17.175Z,1018.38
2018-02-07T07:08:38.854Z,1018.41
2018-02-07T07:10:00.485Z,1018.44
2018-02-07T07:11:22.116Z,1018.36
2018-02-07T07:12:43.722Z,1018.39
2018-02-07T07:14:05.575Z,1018.42
2018-02-07T07:15:27.495Z,1018.33
2018-02-07T07:16:49.355Z,1018.26
2018-02-07T07:18:11.226Z,1018.31
2018-02-07T07:19:33.333Z,1018.3
2018-02-07T07:20:54.933Z,1018.37
2018-02-07T07:22:16.300Z,1018.35
2018-02-07T07:23:38.091Z,1018.42
2018-02-07T07:24:59.959Z,1018.4
2018-02-07T07:26:21.939Z,1018.45
2018-02-07T07:27:43.876Z,1018.48
2018-02-07T07:29:05.214Z,1018.47
2018-02-07T07:30:27.063Z,1018.48
2018-02-07T07:31:48.967Z,1018.49
2018-02-07T07:33:11.216Z,1018.53
2018-02-07T07:34:33.081Z,1018.58
2018-02-07T07:35:54.670Z,1018.6
2018-02-07T07:37:16.791Z,1018.61
2018-02-07T07:38:38.916Z,1018.66
2018-02-07T07:40:01.050Z,1018.73
2018-02-07T07:41:22.535Z,1018.75
2018-02-07T07:42:44.660Z,1018.76
2018-02-07T07:44:06.814Z,1018.76
2018-02-07T07:45:28.950Z,1018.77
2018-02-07T07:46:50.592Z,1018.76
2018-02-07T07:48:12.724Z,1018.78
2018-02-07T07:49:34.604Z,1018.74
2018-02-07T07:50:56.486Z,1018.78
2018-02-07T07:52:19.142Z,1018.8
2018-02-07T07:53:41.427Z,1018.78
2018-02-07T07:55:03.558Z,1018.79
2018-02-07T07:56:25.681Z,1018.82
2018-02-07T07:57:47.550Z,1018.81
2018-02-07T07:59:09.728Z,1018.82
2018-02-07T08:00:31.984Z,1018.82
2018-02-07T08:01:53.976Z,1018.85
2018-02-07T08:03:16.229Z,1018.79
2018-02-07T08:04:38.140Z,1018.79
2018-02-07T08:06:00.310Z,1018.83
2018-02-07T08:07:22.018Z,1018.88
2018-02-07T08:08:43.992Z,1018.86
2018-02-07T08:10:05.869Z,1018.95
2018-02-07T08:11:27.480Z,1018.95
2018-02-07T08:12:49.349Z,1018.96
2018-02-07T08:14:10.958Z,1018.92
2018-02-07T08:15:32.558Z,1018.92
2018-02-07T08:16:54.688Z,1018.91
2018-02-07T08:18:15.899Z,1018.93
2018-02-07T08:19:38.131Z,1018.96
2018-02-07T08:21:00.227Z,1018.97
2018-02-07T08:22:22.378Z,1018.93
2018-02-07T08:23:44.040Z,1018.96
2018-02-07T08:25:05.924Z,1018.97
2018-02-07T08:26:27.901Z,1018.99
2018-02-07T08:27:50.057Z,1019.04
2018-02-07T08:29:11.914Z,1019.03
2018-02-07T08:30:34.178Z,1019.04
2018-02-07T08:31:56.070Z,1019.05
2018-02-07T08:33:17.909Z,1019.05
2018-02-07T08:34:39.796Z,1019.11
2018-02-07T08:36:01.990Z,1019.13
2018-02-07T08:37:24.128Z,1019.14
2018-02-07T08:38:46.401Z,1019.21
2018-02-07T08:40:07.997Z,1019.22
2018-02-07T08:41:29.695Z,1019.26
2018-02-07T08:42:51.817Z,1019.2
2018-02-07T08:44:13.534Z,1019.25
2018-02-07T08:45:35.653Z,1019.26
2018-02-07T08:46:57.753Z,1019.26
2018-02-07T08:48:19.625Z,1019.27
2018-02-07T08:49:41.865Z,1019.28
2018-02-07T08:51:03.728Z,1019.25
2018-02-07T08:52:25.358Z,1019.29
2018-02-07T08:53:47.038Z,1019.28
2018-02-07T08:55:09.177Z,1019.28
2018-02-07T08:56:30.868Z,1019.31
2018-02-07T08:57:52.749Z,1019.36
2018-02-07T08:59:14.979Z,1019.33
2018-02-07T09:00:36.569Z,1019.38
2018-02-07T09:01:57.953Z,1019.34
2018-02-07T09:03:20.122Z,1019.32
2018-02-07T09:04:42.289Z,1019.31
2018-02-07T09:06:04.490Z,1019.27
2018-02-07T09:07:26.200Z,1019.3
2018-02-07T09:08:48.180Z,1019.31
2018-02-07T09:10:10.335Z,1019.29
2018-02-07T09:11:32.217Z,1019.35
2018-02-07T09:12:54.079Z,1019.35
2018-02-07T09:14:15.976Z,1019.38
2018-02-07T09:15:37.577Z,1019.36
2018-02-07T09:16:59.540Z,1019.36
2018-02-07T09:18:21.392Z,1019.4
2018-02-07T09:19:43.027Z,1019.37
2018-02-07T09:21:05.000Z,1019.34
2018-02-07T09:22:26.902Z,1019.36
2018-02-07T09:23:48.785Z,1019.38
2018-02-07T09:25:10.969Z,1019.4
2018-02-07T09:26:33.101Z,1019.38
2018-02-07T09:27:55.232Z,1019.46
2018-02-07T09:29:17.080Z,1019.46
2018-02-07T09:30:38.960Z,1019.46
2018-02-07T09:32:01.111Z,1019.52
2018-02-07T09:33:23.238Z,1019.51
2018-02-07T09:34:45.442Z,1019.46
2018-02-07T09:36:07.423Z,1019.48
2018-02-07T09:37:29.280Z,1019.52
2018-02-07T09:38:51.169Z,1019.52
2018-02-07T09:40:13.302Z,1019.52
2018-02-07T09:41:35.452Z,1019.49
2018-02-07T09:42:57.073Z,1019.54
2018-02-07T09:44:18.957Z,1019.55
2018-02-07T09:45:40.588Z,1019.57
2018-02-07T09:47:02.504Z,1019.6
2018-02-07T09:48:24.631Z,1019.61
2018-02-07T09:49:45.978Z,1019.59
2018-02-07T09:51:08.185Z,1019.6
2018-02-07T09:52:30.348Z,1019.63
2018-02-07T09:53:52.250Z,1019.62
2018-02-07T09:55:14.159Z,1019.67
2018-02-07T09:56:36.037Z,1019.66
2018-02-07T09:57:57.997Z,1019.69
2018-02-07T09:59:20.310Z,1019.61
2018-02-07T10:00:42.429Z,1019.6
2018-02-07T10:02:04.320Z,1019.56
2018-02-07T10:03:26.937Z,1019.55
2018-02-07T10:04:48.825Z,1019.6
2018-02-07T10:06:10.932Z,1019.62
2018-02-07T10:07:32.544Z,1019.6
2018-02-07T10:08:54.409Z,1019.59
2018-02-07T10:10:16.266Z,1019.67
2018-02-07T10:11:38.377Z,1019.6
2018-02-07T10:12:59.753Z,1019.63
2018-02-07T10:14:21.512Z,1019.62
2018-02-07T10:15:43.400Z,1019.64
2018-02-07T10:17:05.696Z,1019.6
2018-02-07T10:18:27.602Z,1019.65
2018-02-07T10:19:49.782Z,1019.66
2018-02-07T10:21:11.648Z,1019.67
2018-02-07T10:22:33.250Z,1019.69
2018-02-07T10:23:55.410Z,1019.67
2018-02-07T10:25:16.751Z,1019.69
2018-02-07T10:26:38.638Z,1019.76
2018-02-07T10:28:00.851Z,1019.73
2018-02-07T10:29:22.719Z,1019.73
2018-02-07T10:30:44.590Z,1019.72
2018-02-07T10:32:05.673Z,1019.77
2018-02-07T10:33:27.376Z,1019.76
2018-02-07T10:34:49.551Z,1019.75
2018-02-07T10:36:11.475Z,1019.74
2018-02-07T10:37:32.901Z,1019.71
2018-02-07T10:38:54.496Z,1019.72
2018-02-07T10:40:16.382Z,1019.74
2018-02-07T10:41:37.982Z,1019.76
2018-02-07T10:43:00.129Z,1019.81
2018-02-07T10:44:21.732Z,1019.84
2018-02-07T10:45:44.012Z,1019.88
2018-02-07T10:47:06.142Z,1019.91
2018-02-07T10:48:27.841Z,1019.88
2018-02-07T10:49:49.720Z,1019.9
2018-02-07T10:51:11.634Z,1019.91
2018-02-07T10:52:33.874Z,1019.94
2018-02-07T10:53:56.018Z,1019.93
2018-02-07T10:55:18.291Z,1019.94
2018-02-07T10:56:39.641Z,1019.94
2018-02-07T10:58:01.896Z,1019.93
2018-02-07T10:59:23.233Z,1019.88
2018-02-07T11:00:45.151Z,1019.88
2018-02-07T11:02:06.936Z,1019.86
2018-02-07T11:03:28.872Z,1019.76
2018-02-07T11:04:50.814Z,1019.8
2018-02-07T11:06:12.953Z,1019.74
2018-02-07T11:07:34.957Z,1019.76
2018-02-07T11:08:56.812Z,1019.75
2018-02-07T11:10:18.732Z,1019.72
2018-02-07T11:11:40.149Z,1019.75
2018-02-07T11:13:02.052Z,1019.78
2018-02-07T11:14:23.956Z,1019.77
2018-02-07T11:15:45.874Z,1019.82
2018-02-07T11:17:07.747Z,1019.79
2018-02-07T11:18:29.595Z,1019.81
2018-02-07T11:19:52.007Z,1019.82
2018-02-07T11:21:13.861Z,1019.83
2018-02-07T11:22:35.541Z,1019.79
2018-02-07T11:23:57.193Z,1019.8
2018-02-07T11:25:19.126Z,1019.81
2018-02-07T11:26:40.477Z,1019.74
2018-02-07T11:28:02.061Z,1019.75
2018-02-07T11:29:23.274Z,1019.82
2018-02-07T11:30:45.132Z,1019.78
2018-02-07T11:32:06.570Z,1019.77
2018-02-07T11:33:28.154Z,1019.78
2018-02-07T11:34:50.043Z,1019.79
2018-02-07T11:38:02.033Z,1019.8
2018-02-07T11:39:23.911Z,1019.82
2018-02-07T11:40:45.511Z,1019.79
2018-02-07T11:42:07.362Z,1019.86
2018-02-07T11:43:29.277Z,1019.84
2018-02-07T11:44:51.470Z,1019.85
2018-02-07T11:46:13.060Z,1019.83
2018-02-07T11:47:35.164Z,1019.77
2018-02-07T11:48:57.008Z,1019.76
2018-02-07T11:50:18.865Z,1019.7
2018-02-07T11:51:40.724Z,1019.73
2018-02-07T11:53:02.442Z,1019.75
2018-02-07T11:54:24.287Z,1019.7
2018-02-07T11:55:46.226Z,1019.7
2018-02-07T11:57:07.851Z,1019.74
2018-02-07T11:58:30.004Z,1019.72
2018-02-07T11:59:52.221Z,1019.73
2018-02-07T12:01:14.092Z,1019.79
2018-02-07T12:02:36.012Z,1019.83
2018-02-07T12:03:57.857Z,1019.81
2018-02-07T12:05:19.709Z,1019.86
2018-02-07T12:06:41.576Z,1019.84
2018-02-07T12:08:03.443Z,1019.78
2018-02-07T12:09:25.412Z,1019.84
2018-02-07T12:10:47.261Z,1019.92
2018-02-07T12:12:08.912Z,1019.86
2018-02-07T12:13:30.659Z,1019.88
2018-02-07T12:14:52.068Z,1019.88
2018-02-07T12:16:14.190Z,1019.8
2018-02-07T12:17:36.105Z,1019.89
2018-02-07T12:18:57.702Z,1019.86
2018-02-07T12:20:19.860Z,1019.85
2018-02-07T12:21:41.977Z,1019.83
2018-02-07T12:23:03.917Z,1019.81
2018-02-07T12:24:26.026Z,1019.77
2018-02-07T12:25:48.005Z,1019.77
2018-02-07T12:27:09.954Z,1019.79
2018-02-07T12:28:32.203Z,1019.75
2018-02-07T12:29:54.119Z,1019.79
2018-02-07T12:31:15.811Z,1019.8
2018-02-07T12:32:37.926Z,1019.75
2018-02-07T12:33:59.791Z,1019.76
2018-02-07T12:35:21.142Z,1019.77
2018-02-07T12:36:43.037Z,1019.69
2018-02-07T12:38:05.219Z,1019.74
2018-02-07T12:39:27.173Z,1019.71
2018-02-07T12:40:48.847Z,1019.67
2018-02-07T12:42:10.821Z,1019.71
2018-02-07T12:43:32.442Z,1019.7
2018-02-07T12:44:54.312Z,1019.78
2018-02-07T12:46:16.506Z,1019.71
2018-02-07T12:47:38.253Z,1019.74
2018-02-07T12:48:59.877Z,1019.67
2018-02-07T12:50:21.489Z,1019.65
2018-02-07T12:51:43.669Z,1019.67
2018-02-07T12:53:05.801Z,1019.73
2018-02-07T12:54:27.942Z,1019.7
2018-02-07T12:55:49.369Z,1019.63
2018-02-07T12:57:10.960Z,1019.64
2018-02-07T12:58:33.084Z,1019.64
2018-02-07T12:59:55.239Z,1019.62
2018-02-07T13:01:17.162Z,1019.65
2018-02-07T13:02:39.056Z,1019.6
2018-02-07T13:04:00.934Z,1019.66
2018-02-07T13:05:22.803Z,1019.6
2018-02-07T13:06:44.701Z,1019.68
2018-02-07T13:08:06.843Z,1019.61
2018-02-07T13:09:28.724Z,1019.66
2018-02-07T13:10:50.913Z,1019.65
2018-02-07T13:12:12.524Z,1019.61
2018-02-07T13:13:34.646Z,1019.65
2018-02-07T13:14:56.507Z,1019.72
2018-02-07T13:16:18.373Z,1019.72
2018-02-07T13:17:40.500Z,1019.73
2018-02-07T13:19:02.451Z,1019.71
2018-02-07T13:20:24.552Z,1019.74
2018-02-07T13:21:46.722Z,1019.73
2018-02-07T13:23:08.870Z,1019.69
2018-02-07T13:24:30.485Z,1019.72
2018-02-07T13:25:51.845Z,1019.77
2018-02-07T13:27:13.781Z,1019.74
2018-02-07T13:28:35.904Z,1019.76
2018-02-07T13:29:58.102Z,1019.73
2018-02-07T13:31:20.042Z,1019.76
2018-02-07T13:32:41.693Z,1019.78
2018-02-07T13:34:03.575Z,1019.81
2018-02-07T13:35:25.462Z,1019.77
2018-02-07T13:36:47.626Z,1019.76
2018-02-07T13:38:09.842Z,1019.74
2018-02-07T13:39:31.459Z,1019.73
2018-02-07T13:40:53.091Z,1019.7
2018-02-07T13:42:14.967Z,1019.68
2018-02-07T13:43:36.855Z,1019.68
2018-02-07T13:44:59.002Z,1019.66
2018-02-07T13:46:20.942Z,1019.65
2018-02-07T13:47:42.676Z,1019.64
2018-02-07T13:49:04.825Z,1019.62
2018-02-07T13:50:26.727Z,1019.55
2018-02-07T13:51:48.970Z,1019.61
2018-02-07T13:53:10.862Z,1019.61
2018-02-07T13:54:32.746Z,1019.56
2018-02-07T13:55:54.912Z,1019.58
2018-02-07T13:57:16.773Z,1019.6
2018-02-07T13:58:39.023Z,1019.58
2018-02-07T14:00:01.242Z,1019.65
2018-02-07T14:01:23.121Z,1019.6
2018-02-07T14:02:44.731Z,1019.66
2018-02-07T14:04:06.617Z,1019.61
2018-02-07T14:05:28.817Z,1019.59
2018-02-07T14:06:50.224Z,1019.61
2018-02-07T14:08:12.363Z,1019.6
2018-02-07T14:09:34.576Z,1019.61
2018-02-07T14:10:56.744Z,1019.62
2018-02-07T14:12:18.624Z,1019.64
2018-02-07T14:13:40.790Z,1019.63
2018-02-07T14:15:02.895Z,1019.65
2018-02-07T14:16:24.510Z,1019.66
2018-02-07T14:17:46.020Z,1019.69
2018-02-07T14:19:07.376Z,1019.67
2018-02-07T14:20:29.082Z,1019.72
2018-02-07T14:21:51.220Z,1019.73
2018-02-07T14:23:12.832Z,1019.74
2018-02-07T14:24:34.455Z,1019.73
2018-02-07T14:25:56.321Z,1019.72
2018-02-07T14:27:18.194Z,1019.76
2018-02-07T14:28:40.383Z,1019.73
2018-02-07T14:30:01.730Z,1019.76
2018-02-07T14:31:23.626Z,1019.74
2018-02-07T14:32:45.804Z,1019.75
2018-02-07T14:34:07.661Z,1019.76
2018-02-07T14:35:30.151Z,1019.79
2018-02-07T14:36:52.012Z,1019.81
2018-02-07T14:38:13.921Z,1019.8
2018-02-07T14:39:35.832Z,1019.74
2018-02-07T14:40:58.001Z,1019.74
2018-02-07T14:42:19.889Z,1019.69
2018-02-07T14:43:41.949Z,1019.68
2018-02-07T14:45:04.194Z,1019.74
2018-02-07T14:46:26.342Z,1019.7
2018-02-07T14:47:48.501Z,1019.71
2018-02-07T14:49:10.414Z,1019.75
2018-02-07T14:50:32.540Z,1019.74
2018-02-07T14:51:54.566Z,1019.67
2018-02-07T14:53:16.468Z,1019.65
2018-02-07T14:54:38.602Z,1019.66
2018-02-07T14:56:00.787Z,1019.66
2018-02-07T14:57:22.680Z,1019.71
2018-02-07T14:58:44.819Z,1019.71
2018-02-07T15:00:06.449Z,1019.76
2018-02-07T15:01:28.592Z,1019.74
2018-02-07T15:02:50.662Z,1019.7
2018-02-07T15:04:12.605Z,1019.69
2018-02-07T15:05:34.767Z,1019.65
2018-02-07T15:06:56.782Z,1019.65
2018-02-07T15:08:18.995Z,1019.58
2018-02-07T15:09:41.226Z,1019.6
2018-02-07T15:11:03.406Z,1019.57
2018-02-07T15:12:25.696Z,1019.63
2018-02-07T15:13:47.618Z,1019.64
2018-02-07T15:15:10.153Z,1019.72
2018-02-07T15:16:32.331Z,1019.73
2018-02-07T15:17:53.752Z,1019.71
2018-02-07T15:19:15.715Z,1019.7
2018-02-07T15:20:37.972Z,1019.73
2018-02-07T15:22:00.144Z,1019.73
2018-02-07T15:23:22.002Z,1019.76
2018-02-07T15:24:43.873Z,1019.7
2018-02-07T15:26:06.019Z,1019.75
2018-02-07T15:27:28.158Z,1019.71
2018-02-07T15:28:50.090Z,1019.69
2018-02-07T15:30:12.024Z,1019.67
2018-02-07T15:31:34.382Z,1019.62
2018-02-07T15:32:56.650Z,1019.64
2018-02-07T15:34:18.904Z,1019.68
2018-02-07T15:35:41.124Z,1019.65
2018-02-07T15:37:03.014Z,1019.64
2018-02-07T15:38:25.253Z,1019.65
2018-02-07T15:39:47.455Z,1019.66
2018-02-07T15:41:09.072Z,1019.67
2018-02-07T15:42:31.219Z,1019.66
2018-02-07T15:43:53.242Z,1019.66
2018-02-07T15:45:15.390Z,1019.63
2018-02-07T15:46:37.274Z,1019.64
2018-02-07T15:47:59.844Z,1019.61
2018-02-07T15:49:21.820Z,1019.59
2018-02-07T15:50:43.809Z,1019.59
2018-02-07T15:52:05.965Z,1019.63
2018-02-07T15:53:28.105Z,1019.64
2018-02-07T15:54:50.285Z,1019.65
2018-02-07T15:56:12.161Z,1019.65
2018-02-07T15:57:34.325Z,1019.6
2018-02-07T15:58:56.463Z,1019.61
2018-02-07T16:00:18.754Z,1019.6
2018-02-07T16:01:40.483Z,1019.52
2018-02-07T16:03:02.620Z,1019.52
2018-02-07T16:04:24.504Z,1019.54
2018-02-07T16:05:46.653Z,1019.57
2018-02-07T16:07:08.894Z,1019.56
2018-02-07T16:08:31.030Z,1019.52
2018-02-07T16:09:53.221Z,1019.51
2018-02-07T16:11:14.880Z,1019.53
2018-02-07T16:12:37.001Z,1019.46
2018-02-07T16:13:58.883Z,1019.48
2018-02-07T16:15:21.101Z,1019.48
2018-02-07T16:16:43.004Z,1019.44
2018-02-07T16:18:04.982Z,1019.42
2018-02-07T16:19:26.887Z,1019.43
2018-02-07T16:20:49.287Z,1019.45
2018-02-07T16:22:11.529Z,1019.44
2018-02-07T16:23:33.693Z,1019.43
2018-02-07T16:24:55.814Z,1019.46
2018-02-07T16:26:17.725Z,1019.45
2018-02-07T16:27:39.385Z,1019.47
2018-02-07T16:29:01.321Z,1019.49
2018-02-07T16:30:22.939Z,1019.49
2018-02-07T16:31:44.862Z,1019.5
2018-02-07T16:33:07.058Z,1019.5
2018-02-07T16:34:28.932Z,1019.48
2018-02-07T16:35:51.116Z,1019.52